Time;durP1;ratioP1;P1;durP2;ratioP2;P2;SDS_P1;SDS_P2;PMS_P1;PMS_P2;Temp;Humidity;BMP_temperature;BMP_pressure;BME280_temperature;BME280_humidity;BME280_pressure;Samples;Min_cycle;Max_cycle;Signal;HPM_P1;HPM_P2
2021/01/29 00:01:36;;;;;;;41.85;23.83;;;3.00;99.90;;;;;;5082793;28;20040;-46
2021/01/29 00:04:03;;;;;;;32.38;19.83;;;3.00;99.90;;;;;;5078684;28;20047;-50
2021/01/29 00:06:29;;;;;;;56.17;31.00;;;3.00;99.90;;;;;;5088076;28;20048;-46
2021/01/29 00:08:56;;;;;;;53.42;29.02;;;3.00;99.90;;;;;;5086029;28;20052;-47
2021/01/29 00:11:22;;;;;;;67.95;36.25;;;3.00;99.90;;;;;;5089784;28;20055;-48
2021/01/29 00:13:49;;;;;;;69.55;35.92;;;3.00;99.90;;;;;;5084088;28;20040;-48
2021/01/29 00:16:15;;;;;;;58.20;34.38;;;3.00;99.90;;;;;;5084388;28;20036;-45
2021/01/29 00:18:42;;;;;;;68.38;33.65;;;2.90;99.90;;;;;;5082968;28;20056;-46
2021/01/29 00:21:10;;;;;;;52.28;32.33;;;2.90;99.90;;;;;;5085156;28;20047;-46
2021/01/29 00:23:36;;;;;;;52.40;29.35;;;2.90;99.90;;;;;;5090362;28;20503;-47
2021/01/29 00:26:03;;;;;;;51.90;28.48;;;2.90;99.90;;;;;;5085586;28;20122;-47
2021/01/29 00:28:29;;;;;;;43.53;26.45;;;2.90;99.90;;;;;;5072557;28;20044;-46
2021/01/29 00:30:56;;;;;;;47.08;25.67;;;2.80;99.90;;;;;;5067464;28;20125;-46
2021/01/29 00:33:25;;;;;;;44.40;25.55;;;2.80;99.90;;;;;;5078472;28;20811;-46
2021/01/29 00:35:52;;;;;;;42.40;24.40;;;2.80;99.90;;;;;;5088000;28;20067;-45
2021/01/29 00:38:19;;;;;;;48.85;25.33;;;2.80;99.90;;;;;;5085168;28;20146;-47
2021/01/29 00:40:46;;;;;;;46.13;25.98;;;2.80;99.90;;;;;;5083214;28;20036;-46
2021/01/29 00:43:13;;;;;;;45.80;26.75;;;2.80;99.90;;;;;;5087777;28;20044;-46
2021/01/29 00:45:42;;;;;;;46.47;24.48;;;2.80;99.90;;;;;;5080478;28;20063;-47
2021/01/29 00:48:09;;;;;;;56.03;28.42;;;2.80;99.90;;;;;;5076241;28;20063;-46
2021/01/29 00:50:37;;;;;;;53.20;26.50;;;2.80;99.90;;;;;;5082722;28;20045;-46
2021/01/29 00:53:05;;;;;;;40.70;23.55;;;2.70;99.90;;;;;;5074313;28;20110;-46
2021/01/29 00:55:31;;;;;;;35.13;22.55;;;2.80;99.90;;;;;;5083416;28;20055;-46
2021/01/29 00:57:58;;;;;;;37.78;21.15;;;2.80;99.90;;;;;;5086517;28;20048;-48
2021/01/29 01:00:25;;;;;;;33.47;20.88;;;2.80;99.90;;;;;;5078645;28;20040;-47
2021/01/29 01:02:52;;;;;;;36.17;21.50;;;2.80;99.90;;;;;;5083556;28;20047;-47
2021/01/29 01:05:22;;;;;;;38.33;24.05;;;2.80;99.90;;;;;;5073140;28;20500;-46
2021/01/29 01:07:48;;;;;;;46.63;26.15;;;2.90;99.90;;;;;;5091820;28;20391;-47
2021/01/29 01:10:15;;;;;;;48.38;26.95;;;2.90;99.90;;;;;;5086417;28;20048;-46
2021/01/29 01:12:41;;;;;;;46.58;27.42;;;2.90;99.90;;;;;;5076316;28;20058;-46
2021/01/29 01:15:11;;;;;;;47.03;26.25;;;2.90;99.90;;;;;;5092654;28;20612;-46
2021/01/29 01:17:37;;;;;;;40.30;24.20;;;2.90;99.90;;;;;;5083350;28;20415;-46
2021/01/29 01:20:07;;;;;;;38.20;23.92;;;2.90;99.90;;;;;;5092460;28;20040;-47
2021/01/29 01:22:33;;;;;;;42.55;22.05;;;2.90;99.90;;;;;;5088971;28;20499;-46
2021/01/29 01:25:00;;;;;;;30.20;20.52;;;2.90;99.90;;;;;;5090704;28;20404;-47
2021/01/29 01:27:26;;;;;;;32.35;19.17;;;2.90;99.90;;;;;;5092711;28;20047;-46
2021/01/29 01:29:53;;;;;;;30.88;19.65;;;2.90;99.90;;;;;;5085407;28;20052;-46
2021/01/29 01:32:19;;;;;;;32.58;18.42;;;2.90;99.90;;;;;;5080460;28;20048;-46
2021/01/29 01:34:46;;;;;;;32.28;19.35;;;2.90;99.90;;;;;;5085809;28;20387;-46
2021/01/29 01:37:13;;;;;;;23.98;16.58;;;2.90;99.90;;;;;;5075711;28;20481;-46
2021/01/29 01:39:39;;;;;;;22.40;16.13;;;2.90;99.90;;;;;;5090017;28;20051;-47
2021/01/29 01:42:06;;;;;;;30.58;17.08;;;2.90;99.90;;;;;;5081045;28;20060;-46
2021/01/29 01:44:41;;;;;;;27.35;16.40;;;2.90;99.90;;;;;;5085333;28;20060;-46
2021/01/29 01:47:29;;;;;;;26.42;17.13;;;2.90;99.90;;;;;;5090356;28;20488;-46
2021/01/29 01:50:11;;;;;;;27.65;17.33;;;2.90;99.90;;;;;;5086084;28;20492;-46
2021/01/29 01:52:39;;;;;;;24.75;14.93;;;2.90;99.90;;;;;;5075045;28;20059;-46
2021/01/29 01:55:13;;;;;;;21.42;15.13;;;2.90;99.90;;;;;;5088678;28;20362;-47
2021/01/29 01:57:41;;;;;;;26.42;15.27;;;2.80;99.90;;;;;;5089494;28;20048;-47
2021/01/29 02:00:14;;;;;;;22.40;14.30;;;2.90;99.90;;;;;;5092412;28;20048;-47
2021/01/29 02:02:49;;;;;;;21.25;13.95;;;2.90;99.90;;;;;;5085886;28;20203;-46
2021/01/29 02:05:22;;;;;;;18.05;13.55;;;2.90;99.90;;;;;;5073746;28;20044;-49
2021/01/29 02:07:53;;;;;;;18.38;12.63;;;2.90;99.90;;;;;;5090674;28;20056;-46
2021/01/29 02:10:22;;;;;;;26.27;14.27;;;2.90;99.90;;;;;;5086540;28;20049;-46
2021/01/29 02:12:49;;;;;;;22.30;13.65;;;2.90;99.90;;;;;;5075909;28;20458;-48
2021/01/29 02:15:17;;;;;;;23.83;15.90;;;2.90;99.90;;;;;;5088140;28;20063;-46
2021/01/29 02:18:12;;;;;;;24.05;16.08;;;2.90;99.90;;;;;;5081389;28;20043;-47
2021/01/29 02:20:57;;;;;;;;;;;2.90;99.90;;;;;;5090025;28;20256;-46
2021/01/29 02:23:36;;;;;;;28.98;17.38;;;2.90;99.90;;;;;;5088762;28;20402;-46
2021/01/29 02:26:47;;;;;;;33.22;21.48;;;2.90;99.90;;;;;;5079660;28;20563;-48
2021/01/29 02:29:45;;;;;;;30.83;19.70;;;2.80;99.90;;;;;;5077185;28;20044;-47
2021/01/29 02:32:36;;;;;;;31.95;19.70;;;2.80;99.90;;;;;;5049066;28;20113;-46
2021/01/29 02:35:19;;;;;;;27.70;20.60;;;2.80;99.90;;;;;;5090668;28;20048;-47
2021/01/29 02:37:55;;;;;;;33.50;20.38;;;2.80;99.90;;;;;;5073430;28;20515;-46
2021/01/29 02:40:31;;;;;;;37.70;20.35;;;2.70;99.90;;;;;;5084057;28;20044;-46
2021/01/29 02:43:41;;;;;;;34.03;20.08;;;2.80;99.90;;;;;;5083557;28;20044;-46
2021/01/29 02:46:37;;;;;;;31.83;20.92;;;2.80;99.90;;;;;;5076869;28;20052;-46
2021/01/29 02:49:15;;;;;;;27.27;18.02;;;2.80;99.90;;;;;;5083321;28;20428;-46
2021/01/29 02:52:09;;;;;;;34.78;19.45;;;2.80;99.90;;;;;;5081050;28;20052;-47
2021/01/29 02:54:47;;;;;;;;;;;2.80;99.90;;;;;;5079460;28;20048;-46
2021/01/29 02:57:37;;;;;;;30.85;20.42;;;2.80;99.90;;;;;;5076022;28;20314;-47
2021/01/29 03:00:16;;;;;;;29.73;21.52;;;2.80;99.90;;;;;;5055394;28;20052;-46
2021/01/29 03:03:08;;;;;;;28.90;19.17;;;2.70;99.90;;;;;;5079547;28;20512;-46
2021/01/29 03:05:37;;;;;;;30.30;18.60;;;2.80;99.90;;;;;;5080150;28;20055;-46
2021/01/29 03:08:19;;;;;;;34.22;19.45;;;2.80;99.90;;;;;;5086028;28;20055;-48
2021/01/29 03:11:16;;;;;;;35.10;23.60;;;2.80;99.90;;;;;;5087561;28;20047;-46
2021/01/29 03:13:55;;;;;;;33.75;21.58;;;2.80;99.90;;;;;;5091118;28;20098;-46
2021/01/29 03:16:27;;;;;;;36.22;21.85;;;2.70;99.90;;;;;;5081316;28;20057;-47
2021/01/29 03:19:15;;;;;;;33.00;21.67;;;2.70;99.90;;;;;;5079127;28;20465;-46
2021/01/29 03:21:46;;;;;;;37.17;21.77;;;2.70;99.90;;;;;;5091922;28;20055;-47
2021/01/29 03:24:22;;;;;;;32.65;20.63;;;2.70;99.90;;;;;;5088663;28;20051;-46
2021/01/29 03:26:53;;;;;;;30.63;19.67;;;2.70;99.90;;;;;;5087179;28;20389;-46
2021/01/29 03:29:22;;;;;;;33.35;21.23;;;2.70;99.90;;;;;;5075477;28;20052;-45
2021/01/29 03:31:53;;;;;;;32.85;20.33;;;2.80;99.90;;;;;;5081872;28;20048;-46
2021/01/29 03:34:42;;;;;;;31.25;20.42;;;2.70;99.90;;;;;;5081346;28;20133;-46
2021/01/29 03:37:35;;;;;;;33.13;21.60;;;2.80;99.90;;;;;;5074815;28;20048;-46
2021/01/29 03:40:04;;;;;;;35.60;21.77;;;2.80;99.90;;;;;;5087490;28;20048;-47
2021/01/29 03:42:42;;;;;;;28.85;19.80;;;2.80;99.90;;;;;;5089177;28;20055;-48
2021/01/29 03:45:18;;;;;;;29.05;19.40;;;2.80;99.90;;;;;;5086324;28;20048;-47
2021/01/29 03:48:06;;;;;;;38.90;22.08;;;2.80;99.90;;;;;;5083535;28;20052;-46
2021/01/29 03:50:52;;;;;;;37.83;23.40;;;2.70;99.90;;;;;;5077770;28;20430;-46
2021/01/29 03:53:30;;;;;;;34.75;21.20;;;2.70;99.90;;;;;;5077877;28;20527;-46
2021/01/29 03:56:11;;;;;;;38.88;24.02;;;2.80;99.90;;;;;;5080975;28;20400;-47
2021/01/29 03:59:22;;;;;;;40.35;24.42;;;2.70;99.90;;;;;;5055050;28;20052;-47
2021/01/29 04:01:52;;;;;;;41.78;24.83;;;2.60;99.90;;;;;;5069033;28;20044;-47
2021/01/29 04:04:27;;;;;;;44.00;24.33;;;2.60;99.90;;;;;;5082306;28;20134;-47
2021/01/29 04:07:05;;;;;;;34.80;20.75;;;2.60;99.90;;;;;;5084418;28;20043;-48
2021/01/29 04:09:53;;;;;;;31.77;20.98;;;2.60;99.90;;;;;;5090925;28;20047;-48
2021/01/29 04:13:01;;;;;;;36.65;22.38;;;2.60;99.90;;;;;;5086062;28;20044;-47
2021/01/29 04:16:02;;;;;;;35.03;20.30;;;2.70;99.90;;;;;;5060139;28;20044;-46
2021/01/29 04:18:31;;;;;;;27.00;17.70;;;2.70;99.90;;;;;;5013645;28;20149;-46
2021/01/29 04:21:15;;;;;;;30.20;18.73;;;2.70;99.90;;;;;;5024003;28;20772;-47
2021/01/29 04:23:45;;;;;;;23.17;17.50;;;2.70;99.90;;;;;;5024053;28;20449;-47
2021/01/29 04:26:16;;;;;;;26.38;18.00;;;2.70;99.90;;;;;;5025752;28;20375;-47
2021/01/29 04:28:51;;;;;;;29.42;19.33;;;2.70;99.90;;;;;;5025502;28;20061;-47
2021/01/29 04:31:19;;;;;;;27.02;18.75;;;2.70;99.90;;;;;;5024288;28;20383;-46
2021/01/29 04:34:21;;;;;;;26.13;17.83;;;2.70;99.90;;;;;;5026998;28;20466;-46
2021/01/29 04:36:51;;;;;;;22.77;16.95;;;2.70;99.90;;;;;;5024682;28;20049;-47
2021/01/29 04:39:33;;;;;;;28.70;17.17;;;2.70;99.90;;;;;;5025039;28;20128;-48
2021/01/29 04:42:08;;;;;;;23.52;15.63;;;2.80;99.90;;;;;;5018305;28;20469;-46
2021/01/29 04:45:16;;;;;;;23.88;17.38;;;2.80;99.90;;;;;;5025569;28;20053;-47
2021/01/29 04:48:43;;;;;;;26.25;16.77;;;2.80;99.90;;;;;;5022329;28;20064;-47
2021/01/29 04:51:37;;;;;;;24.35;15.43;;;2.70;99.90;;;;;;4940817;29;20066;-47
2021/01/29 04:54:30;;;;;;;22.50;15.27;;;2.80;99.90;;;;;;4965504;28;20079;-46
2021/01/29 04:57:31;;;;;;;20.55;15.43;;;2.80;99.90;;;;;;5066369;28;20123;-47
2021/01/29 05:00:26;;;;;;;19.20;15.60;;;2.80;99.90;;;;;;5078495;28;20150;-47
2021/01/29 05:02:53;;;;;;;23.15;16.38;;;2.80;99.90;;;;;;5072386;28;20064;-47
2021/01/29 05:05:32;;;;;;;22.65;17.17;;;2.80;99.90;;;;;;5085487;28;20101;-49
2021/01/29 05:08:07;;;;;;;19.83;14.27;;;2.80;99.90;;;;;;5087268;28;20059;-46
2021/01/29 05:10:55;;;;;;;21.33;13.95;;;2.90;99.90;;;;;;5072938;28;20508;-47
2021/01/29 05:13:54;;;;;;;22.35;13.57;;;2.90;99.90;;;;;;5084718;28;20052;-46
2021/01/29 05:17:00;;;;;;;22.70;14.05;;;2.90;99.90;;;;;;5086605;28;20052;-46
2021/01/29 05:19:48;;;;;;;27.27;17.58;;;2.90;99.90;;;;;;5077062;28;20041;-47
2021/01/29 05:22:37;;;;;;;24.75;15.60;;;3.00;99.90;;;;;;5087342;28;20040;-46
2021/01/29 05:25:27;;;;;;;15.75;12.27;;;3.00;99.90;;;;;;5082324;28;20048;-46
2021/01/29 05:28:28;;;;;;;17.17;12.68;;;3.10;99.90;;;;;;5076567;28;20048;-46
2021/01/29 05:31:20;;;;;;;10.95;7.43;;;3.00;99.90;;;;;;5070043;28;22783;-47
2021/01/29 05:34:14;;;;;;;19.67;14.27;;;3.10;99.90;;;;;;5076021;28;20143;-46
2021/01/29 05:37:17;;;;;;;25.15;15.68;;;3.10;99.90;;;;;;5081420;28;20051;-47
2021/01/29 05:39:54;;;;;;;27.30;17.58;;;3.00;99.90;;;;;;5073880;28;20048;-47
2021/01/29 05:42:54;;;;;;;11.65;10.45;;;2.90;99.90;;;;;;5086271;28;20059;-47
2021/01/29 05:45:44;;;;;;;10.68;8.60;;;3.10;99.90;;;;;;5080925;28;20053;-47
2021/01/29 05:48:30;;;;;;;21.65;14.82;;;3.10;99.90;;;;;;5040344;28;20054;-47
2021/01/29 05:51:24;;;;;;;21.15;16.23;;;3.20;99.90;;;;;;5082412;28;20133;-47
2021/01/29 05:54:35;;;;;;;22.48;15.73;;;3.30;99.90;;;;;;5083545;28;20048;-46
2021/01/29 05:57:26;;;;;;;24.83;16.95;;;3.20;99.90;;;;;;5059570;28;20057;-46
2021/01/29 06:00:23;;;;;;;14.93;11.52;;;3.10;99.90;;;;;;5077250;28;20399;-46
2021/01/29 06:03:19;;;;;;;16.42;9.43;;;3.20;99.90;;;;;;5090766;28;20047;-48
2021/01/29 06:06:05;;;;;;;36.72;23.98;;;3.30;99.90;;;;;;5082682;28;20055;-47
2021/01/29 06:08:43;;;;;;;22.13;14.65;;;3.30;99.90;;;;;;5084164;28;20056;-46
2021/01/29 06:11:32;;;;;;;22.17;15.15;;;3.30;99.90;;;;;;5087702;28;20511;-47
2021/01/29 06:14:19;;;;;;;21.35;15.75;;;3.30;99.90;;;;;;5091154;28;20051;-47
2021/01/29 06:17:06;;;;;;;41.40;27.50;;;3.40;99.90;;;;;;5087496;28;20067;-47
2021/01/29 06:20:22;;;;;;;38.17;25.30;;;3.20;99.90;;;;;;5080955;28;20056;-47
2021/01/29 06:23:27;;;;;;;30.80;23.63;;;3.00;99.90;;;;;;5071539;28;20715;-47
2021/01/29 06:26:00;;;;;;;34.90;22.05;;;3.10;99.90;;;;;;5055071;28;20052;-48
2021/01/29 06:28:37;;;;;;;30.35;21.20;;;3.10;99.90;;;;;;5083827;28;20053;-49
2021/01/29 06:31:25;;;;;;;27.63;20.73;;;3.20;99.90;;;;;;5092207;28;20044;-50
2021/01/29 06:34:10;;;;;;;32.10;22.42;;;3.10;99.90;;;;;;5091426;28;20067;-52
2021/01/29 06:37:04;;;;;;;93.43;37.20;;;3.10;99.90;;;;;;5084609;28;20055;-49
2021/01/29 06:39:37;;;;;;;63.88;32.35;;;3.00;99.90;;;;;;5083871;28;20063;-48
2021/01/29 06:42:28;;;;;;;43.10;29.67;;;3.00;99.90;;;;;;5081604;28;20045;-49
2021/01/29 06:45:07;;;;;;;22.00;14.50;;;3.00;99.90;;;;;;5081153;28;20048;-49
2021/01/29 06:48:05;;;;;;;19.67;16.42;;;3.10;99.90;;;;;;5073088;28;20060;-49
2021/01/29 06:50:55;;;;;;;21.92;15.60;;;3.30;99.90;;;;;;5080108;28;20066;-48
2021/01/29 06:53:55;;;;;;;26.17;17.90;;;3.40;99.90;;;;;;5084310;28;20059;-49
2021/01/29 06:56:22;;;;;;;30.00;19.15;;;3.50;99.90;;;;;;5077657;28;20048;-49
2021/01/29 06:59:12;;;;;;;31.10;20.58;;;3.50;99.90;;;;;;5091778;28;20055;-50
2021/01/29 07:02:11;;;;;;;24.48;17.63;;;3.40;99.90;;;;;;5083670;28;20064;-48
2021/01/29 07:05:31;;;;;;;7.40;4.93;;;3.50;99.90;;;;;;5078571;28;20128;-50
2021/01/29 07:08:14;;;;;;;37.50;19.50;;;3.80;99.90;;;;;;4998979;28;20104;-52
2021/01/29 07:11:18;;;;;;;31.90;20.10;;;3.80;99.90;;;;;;5083400;28;20712;-49
2021/01/29 07:14:23;;;;;;;15.40;9.43;;;3.70;99.90;;;;;;5007957;28;20281;-49
2021/01/29 07:17:36;;;;;;;5.65;3.88;;;3.90;99.90;;;;;;4982710;28;20101;-49
2021/01/29 07:20:12;;;;;;;2.60;2.40;;;4.40;99.90;;;;;;5008117;28;20398;-49
2021/01/29 07:23:07;;;;;;;13.52;9.90;;;4.50;99.90;;;;;;5010113;28;20974;-49
2021/01/29 07:25:51;;;;;;;4.25;3.67;;;4.50;99.90;;;;;;5008699;28;20049;-49
2021/01/29 07:28:20;;;;;;;;;;;4.60;99.90;;;;;;5008771;28;20046;-49
2021/01/29 07:31:04;;;;;;;1.17;1.08;;;4.80;99.90;;;;;;5009989;28;19937;-49
2021/01/29 07:33:45;;;;;;;4.20;1.90;;;4.80;99.90;;;;;;5009296;28;20057;-49
2021/01/29 07:36:39;;;;;;;5.18;3.83;;;4.80;99.90;;;;;;5007729;28;20101;-51
2021/01/29 07:39:13;;;;;;;6.03;4.85;;;4.70;99.90;;;;;;5010405;28;20042;-49
2021/01/29 07:42:25;;;;;;;14.88;11.98;;;4.70;99.90;;;;;;5008252;28;20052;-49
2021/01/29 07:45:25;;;;;;;12.05;9.80;;;4.60;99.90;;;;;;4940617;28;20058;-50
2021/01/29 07:48:14;;;;;;;19.33;12.18;;;4.40;99.90;;;;;;5008948;28;20157;-51
2021/01/29 07:50:48;;;;;;;5.85;3.47;;;4.30;99.90;;;;;;5064641;28;20055;-49
2021/01/29 07:53:40;;;;;;;5.75;5.18;;;4.50;99.90;;;;;;5084606;28;20059;-50
2021/01/29 07:56:28;;;;;;;5.03;4.15;;;4.60;99.90;;;;;;5070702;28;20052;-50
2021/01/29 07:59:30;;;;;;;2.03;1.50;;;4.60;99.90;;;;;;5090971;28;20044;-49
2021/01/29 08:02:20;;;;;;;5.18;4.72;;;4.80;99.90;;;;;;5087820;28;20044;-49
2021/01/29 08:05:36;;;;;;;1.40;1.30;;;4.90;99.90;;;;;;5089089;28;20039;-50
2021/01/29 08:08:22;;;;;;;0.77;0.70;;;5.10;99.90;;;;;;5051780;28;20062;-50
2021/01/29 08:10:53;;;;;;;0.88;0.70;;;5.30;99.90;;;;;;5089211;28;20052;-49
2021/01/29 08:13:32;;;;;;;0.50;0.40;;;5.40;99.90;;;;;;5085646;28;20066;-49
2021/01/29 08:16:01;;;;;;;0.98;0.80;;;5.50;99.90;;;;;;5090338;28;20063;-53
2021/01/29 08:18:50;;;;;;;7.63;6.00;;;5.50;99.90;;;;;;5085906;28;20408;-49
2021/01/29 08:21:31;;;;;;;0.50;0.40;;;5.40;99.90;;;;;;5091924;28;20044;-49
2021/01/29 08:24:14;;;;;;;0.60;0.40;;;5.60;99.90;;;;;;5084057;28;20045;-49
2021/01/29 08:26:52;;;;;;;2.17;0.98;;;5.70;99.90;;;;;;5084097;28;20067;-51
2021/01/29 08:29:41;;;;;;;1.35;0.90;;;5.90;99.90;;;;;;5087911;28;20488;-49
2021/01/29 08:32:29;;;;;;;0.32;0.32;;;5.90;99.90;;;;;;5089815;28;20059;-49
2021/01/29 08:35:03;;;;;;;0.57;0.30;;;5.90;99.90;;;;;;5081181;28;20131;-49
2021/01/29 08:37:41;;;;;;;0.30;0.20;;;6.00;99.90;;;;;;5078873;28;20063;-49
2021/01/29 08:40:28;;;;;;;1.00;0.52;;;6.00;99.90;;;;;;5088031;28;20044;-50
2021/01/29 08:43:06;;;;;;;0.30;0.30;;;6.10;99.90;;;;;;5082430;28;20513;-50
2021/01/29 08:46:00;;;;;;;0.30;0.20;;;6.10;99.90;;;;;;5077627;28;20055;-49
2021/01/29 08:48:39;;;;;;;0.73;0.30;;;6.10;99.90;;;;;;5070309;28;20060;-49
2021/01/29 08:51:24;;;;;;;4.03;0.50;;;6.20;99.90;;;;;;5081540;28;20053;-49
2021/01/29 08:54:15;;;;;;;0.98;0.50;;;6.10;99.90;;;;;;5081968;28;20138;-49
2021/01/29 08:57:21;;;;;;;0.98;0.98;;;6.10;99.90;;;;;;5070886;28;20102;-49
2021/01/29 08:59:49;;;;;;;1.63;0.30;;;6.10;99.90;;;;;;5074716;28;20052;-49
2021/01/29 09:02:56;;;;;;;0.40;0.22;;;6.20;99.90;;;;;;5081329;28;21556;-51
2021/01/29 09:05:27;;;;;;;0.47;0.45;;;6.10;99.90;;;;;;5073950;28;20056;-49
2021/01/29 09:08:01;;;;;;;0.50;0.30;;;6.10;99.90;;;;;;5088949;28;20060;-53
2021/01/29 09:10:36;;;;;;;3.45;0.30;;;6.10;99.90;;;;;;5084093;28;20044;-49
2021/01/29 09:13:05;;;;;;;0.30;0.30;;;6.10;99.90;;;;;;5088665;28;20465;-49
2021/01/29 09:16:18;;;;;;;1.13;0.30;;;6.10;99.90;;;;;;5079501;28;20507;-49
2021/01/29 09:18:56;;;;;;;1.33;0.50;;;6.10;99.90;;;;;;5054637;28;20493;-49
2021/01/29 09:21:34;;;;;;;0.40;0.40;;;6.00;99.90;;;;;;5095613;28;20056;-50
2021/01/29 09:24:20;;;;;;;1.02;0.40;;;6.10;99.90;;;;;;5087726;28;20052;-50
2021/01/29 09:26:49;;;;;;;1.05;0.30;;;6.10;99.90;;;;;;5082128;28;20877;-49
2021/01/29 09:29:29;;;;;;;0.50;0.50;;;6.10;99.90;;;;;;5077342;28;20049;-49
2021/01/29 09:32:03;;;;;;;0.40;0.40;;;6.10;99.90;;;;;;5092940;28;20051;-49
2021/01/29 09:34:49;;;;;;;0.40;0.40;;;6.10;99.90;;;;;;5088564;28;20044;-51
2021/01/29 09:37:23;;;;;;;0.50;0.50;;;6.10;99.90;;;;;;5091480;28;20719;-49
2021/01/29 09:40:06;;;;;;;2.38;0.40;;;6.10;99.90;;;;;;5088821;28;20052;-50
2021/01/29 09:42:53;;;;;;;1.88;0.50;;;6.10;99.90;;;;;;5086439;28;20052;-51
2021/01/29 09:45:25;;;;;;;1.15;0.90;;;6.10;99.90;;;;;;5088032;28;20055;-50
2021/01/29 09:48:01;;;;;;;1.45;0.63;;;6.10;99.90;;;;;;5092275;28;20052;-49
2021/01/29 09:50:30;;;;;;;1.45;1.35;;;6.00;99.90;;;;;;5089438;28;20044;-50
2021/01/29 09:53:25;;;;;;;14.68;10.48;;;6.00;99.90;;;;;;5090067;28;20477;-49
2021/01/29 09:55:54;;;;;;;;;;;6.10;99.90;;;;;;5080658;28;20083;-49
2021/01/29 09:58:59;;;;;;;1.17;0.70;;;6.00;99.90;;;;;;5089503;28;19920;-49
2021/01/29 10:01:34;;;;;;;2.10;0.80;;;6.00;99.90;;;;;;5074318;28;20393;-49
2021/01/29 10:04:33;;;;;;;1.17;1.08;;;6.10;99.90;;;;;;5092888;28;20040;-51
2021/01/29 10:07:05;;;;;;;4.10;2.20;;;6.10;99.90;;;;;;5085793;28;20052;-50
2021/01/29 10:09:39;;;;;;;4.22;3.00;;;6.10;99.90;;;;;;5079258;28;20055;-49
2021/01/29 10:12:06;;;;;;;1.35;0.55;;;6.10;99.90;;;;;;5099862;28;20063;-49
2021/01/29 10:14:50;;;;;;;3.40;2.22;;;6.10;99.90;;;;;;5088024;28;20460;-50
2021/01/29 10:17:33;;;;;;;1.70;0.93;;;6.10;99.90;;;;;;5090597;28;20087;-49
2021/01/29 10:20:09;;;;;;;1.17;0.90;;;6.20;99.90;;;;;;5095954;28;20048;-49
2021/01/29 10:22:42;;;;;;;1.75;1.00;;;6.20;99.90;;;;;;5095613;28;20036;-49
2021/01/29 10:25:14;;;;;;;3.92;2.85;;;6.20;99.90;;;;;;5082997;28;20483;-51
2021/01/29 10:28:11;;;;;;;11.63;8.80;;;6.30;99.90;;;;;;5087536;28;20044;-49
2021/01/29 10:30:50;;;;;;;1.92;1.65;;;6.20;99.90;;;;;;5077056;28;20044;-49
2021/01/29 10:33:45;;;;;;;1.00;0.90;;;6.20;99.90;;;;;;5092357;28;20522;-49
2021/01/29 10:36:27;;;;;;;1.42;1.20;;;6.30;99.90;;;;;;5081884;28;20540;-49
2021/01/29 10:39:03;;;;;;;3.05;2.63;;;6.30;99.90;;;;;;5084509;28;20052;-49
2021/01/29 10:41:50;;;;;;;4.13;3.30;;;6.40;99.90;;;;;;5079161;28;20045;-50
2021/01/29 10:44:26;;;;;;;9.77;8.30;;;6.30;99.90;;;;;;5090326;28;20098;-49
2021/01/29 10:47:18;;;;;;;12.93;8.70;;;6.30;99.90;;;;;;5085483;28;20041;-49
2021/01/29 10:50:26;;;;;;;26.20;15.20;;;6.30;99.90;;;;;;5076099;28;20048;-49
2021/01/29 10:53:03;;;;;;;28.58;16.10;;;6.30;99.90;;;;;;5058631;28;20414;-49
2021/01/29 10:55:34;;;;;;;5.00;2.90;;;6.30;99.90;;;;;;5082266;28;20048;-49
2021/01/29 10:58:22;;;;;;;5.32;4.10;;;6.30;99.90;;;;;;5078773;28;20085;-49
2021/01/29 11:01:03;;;;;;;1.25;0.93;;;6.40;99.90;;;;;;5091843;28;20093;-49
2021/01/29 11:03:55;;;;;;;0.80;0.70;;;6.40;99.90;;;;;;5080957;28;20051;-49
2021/01/29 11:06:29;;;;;;;1.70;0.60;;;6.50;99.90;;;;;;5091109;28;20412;-51
2021/01/29 11:09:01;;;;;;;2.78;1.42;;;6.50;99.90;;;;;;5087606;28;20051;-49
2021/01/29 11:11:39;;;;;;;1.50;0.90;;;6.50;99.90;;;;;;5077518;28;20044;-49
2021/01/29 11:14:31;;;;;;;3.05;1.23;;;6.50;99.90;;;;;;5083032;28;20400;-49
2021/01/29 11:17:21;;;;;;;3.50;1.75;;;6.50;99.90;;;;;;5086079;28;20052;-50
2021/01/29 11:19:52;;;;;;;3.58;1.50;;;6.50;99.90;;;;;;5087017;28;20365;-49
2021/01/29 11:22:21;;;;;;;3.58;3.03;;;6.50;99.90;;;;;;5087580;28;20048;-50
2021/01/29 11:25:06;;;;;;;6.55;5.95;;;6.50;99.90;;;;;;5085310;28;20040;-50
2021/01/29 11:27:49;;;;;;;9.80;7.57;;;6.60;99.90;;;;;;5087549;28;20055;-49
2021/01/29 11:30:26;;;;;;;94.88;21.05;;;6.50;99.90;;;;;;5087834;28;20099;-50
2021/01/29 11:33:03;;;;;;;7.13;4.38;;;6.40;99.90;;;;;;5081351;28;20491;-49
2021/01/29 11:35:46;;;;;;;13.98;12.52;;;6.40;99.90;;;;;;5082726;28;20090;-49
2021/01/29 11:38:30;;;;;;;12.10;9.40;;;6.40;99.90;;;;;;5085827;28;20044;-49
2021/01/29 11:40:57;;;;;;;;;;;6.40;99.90;;;;;;5087078;28;20055;-49
2021/01/29 11:43:33;;;;;;;16.08;14.18;;;6.30;99.90;;;;;;5098858;28;20322;-49
2021/01/29 11:46:12;;;;;;;2.17;1.38;;;6.30;99.90;;;;;;5082199;28;20052;-49
2021/01/29 11:48:47;;;;;;;8.35;7.55;;;6.40;99.90;;;;;;5078035;28;20067;-49
2021/01/29 11:51:32;;;;;;;8.77;6.47;;;6.30;99.90;;;;;;5090968;28;20412;-49
2021/01/29 11:54:06;;;;;;;6.05;5.45;;;6.40;99.90;;;;;;5085339;28;20499;-49
2021/01/29 11:57:00;;;;;;;18.73;13.45;;;6.40;99.90;;;;;;5076892;28;20052;-51
2021/01/29 11:59:45;;;;;;;21.38;13.23;;;6.30;99.90;;;;;;5075072;28;20044;-49
2021/01/29 12:02:26;;;;;;;27.02;17.60;;;6.30;99.90;;;;;;5089393;28;20044;-51
2021/01/29 12:05:18;;;;;;;47.80;20.15;;;6.30;99.90;;;;;;5087014;28;20048;-50
2021/01/29 12:08:11;;;;;;;36.05;20.63;;;6.30;99.90;;;;;;5081961;28;20091;-53
2021/01/29 12:11:11;;;;;;;73.60;29.85;;;6.30;99.90;;;;;;5083304;28;20511;-49
2021/01/29 12:13:55;;;;;;;57.90;21.92;;;6.20;99.90;;;;;;5081401;28;20052;-50
2021/01/29 12:16:28;;;;;;;89.22;29.15;;;6.30;99.90;;;;;;5073223;28;20040;-51
2021/01/29 12:18:57;;;;;;;21.90;15.77;;;6.30;99.90;;;;;;5088583;28;20055;-51
2021/01/29 12:21:24;;;;;;;57.10;35.72;;;6.30;99.90;;;;;;5088866;28;20040;-50
2021/01/29 12:24:19;;;;;;;269.00;24.08;;;6.40;99.90;;;;;;5081059;28;20045;-53
2021/01/29 12:27:30;;;;;;;22.25;12.82;;;6.40;99.90;;;;;;5088496;28;20040;-49
2021/01/29 12:30:08;;;;;;;15.52;11.40;;;6.40;99.90;;;;;;4984917;28;20047;-50
2021/01/29 12:33:07;;;;;;;109.35;26.33;;;6.50;99.90;;;;;;4986414;28;20061;-51
2021/01/29 12:35:46;;;;;;;23.30;16.23;;;6.50;99.90;;;;;;4977828;28;20051;-49
2021/01/29 12:38:31;;;;;;;18.83;13.73;;;6.60;99.90;;;;;;5003275;28;20061;-51
2021/01/29 12:41:33;;;;;;;15.48;10.63;;;6.70;99.90;;;;;;5001849;28;20110;-50
2021/01/29 12:44:34;;;;;;;31.77;19.13;;;6.80;99.90;;;;;;5007000;28;20046;-52
2021/01/29 12:47:18;;;;;;;27.33;19.63;;;6.80;99.90;;;;;;5006763;28;20058;-50
2021/01/29 12:50:03;;;;;;;25.13;20.02;;;6.80;99.90;;;;;;5005917;28;20562;-49
2021/01/29 12:52:44;;;;;;;8.18;6.13;;;6.90;99.90;;;;;;4995824;28;20049;-49
2021/01/29 12:55:23;;;;;;;18.33;12.82;;;6.90;99.90;;;;;;5001596;28;20058;-49
2021/01/29 12:58:01;;;;;;;41.95;26.98;;;6.90;99.90;;;;;;5002982;28;20050;-50
2021/01/29 13:00:38;;;;;;;34.08;22.30;;;6.90;99.90;;;;;;4990126;28;20054;-51
2021/01/29 13:03:10;;;;;;;45.75;27.95;;;7.00;99.90;;;;;;5009140;28;20482;-50
2021/01/29 13:06:04;;;;;;;24.20;17.85;;;6.90;99.90;;;;;;5010252;28;20495;-52
2021/01/29 13:08:33;;;;;;;;;;;6.90;99.90;;;;;;5001483;28;20426;-49
2021/01/29 13:11:07;;;;;;;16.35;7.82;;;7.00;99.90;;;;;;5013122;28;19926;-50
2021/01/29 13:13:41;;;;;;;5.00;4.60;;;7.00;99.90;;;;;;5081484;28;20047;-50
2021/01/29 13:16:41;;;;;;;15.60;11.57;;;7.10;99.90;;;;;;5079647;28;20132;-50
2021/01/29 13:19:24;;;;;;;24.58;17.52;;;7.20;99.90;;;;;;4990620;28;20406;-49
2021/01/29 13:21:57;;;;;;;19.02;15.57;;;7.20;99.90;;;;;;4989853;28;20418;-49
2021/01/29 13:24:34;;;;;;;168.10;16.77;;;7.30;99.90;;;;;;4991225;28;20467;-50
2021/01/29 13:27:05;;;;;;;335.13;30.50;;;7.20;99.90;;;;;;4989374;28;20058;-49
2021/01/29 13:29:33;;;;;;;61.20;15.15;;;7.10;99.90;;;;;;4989338;28;20483;-49
2021/01/29 13:32:34;;;;;;;40.45;12.27;;;7.00;99.90;;;;;;4991710;28;20071;-50
2021/01/29 13:35:06;;;;;;;35.40;16.00;;;7.10;99.90;;;;;;4983735;28;20051;-53
2021/01/29 13:37:33;;;;;;;55.42;21.33;;;7.10;99.90;;;;;;4981062;28;20574;-52
2021/01/29 13:40:22;;;;;;;16.33;13.43;;;7.10;99.90;;;;;;4986458;28;20054;-51
2021/01/29 13:42:49;;;;;;;30.80;21.17;;;7.20;99.90;;;;;;4984622;28;20054;-49
2021/01/29 13:45:28;;;;;;;17.17;14.30;;;7.20;99.90;;;;;;4981067;28;20047;-50
2021/01/29 13:48:10;;;;;;;26.58;20.70;;;7.20;99.90;;;;;;4977084;28;20472;-51
2021/01/29 13:50:55;;;;;;;17.05;14.40;;;7.30;99.90;;;;;;4987053;28;20050;-50
2021/01/29 13:53:28;;;;;;;26.10;18.05;;;7.30;99.90;;;;;;4989004;28;20054;-49
2021/01/29 13:56:19;;;;;;;26.60;17.38;;;7.40;99.90;;;;;;5049242;28;20477;-50
2021/01/29 13:59:10;;;;;;;21.60;16.38;;;7.40;99.90;;;;;;5085462;28;20056;-50
2021/01/29 14:01:56;;;;;;;26.42;20.20;;;7.50;99.90;;;;;;5092084;28;20047;-52